Time;durP1;ratioP1;P1;durP2;ratioP2;P2;SDS_P1;SDS_P2;PMS_P1;PMS_P2;Temp;Humidity;BMP_temperature;BMP_pressure;BME280_temperature;BME280_humidity;BME280_pressure;Samples;Min_cycle;Max_cycle;Signal;HPM_P1;HPM_P2
2021/12/06 00:01:14;;;;;;;7.40;5.10;;;;;;;19.61;32.04;99484.88;5041670;28;20033;-68
2021/12/06 00:03:39;;;;;;;;;;;;;;;19.56;32.20;99483.75;5033664;28;20037;-78
2021/12/06 00:06:05;;;;;;;11.35;5.82;;;;;;;19.58;32.31;99477.19;5034288;28;20338;-73
2021/12/06 00:08:31;;;;;;;5.72;4.82;;;;;;;19.60;32.13;99479.69;5015932;28;20030;-74
2021/12/06 00:10:57;;;;;;;7.30;5.53;;;;;;;19.59;32.18;99478.03;5034426;28;20044;-76
2021/12/06 00:13:23;;;;;;;7.32;5.28;;;;;;;19.60;32.34;99479.69;5015437;28;20103;-74
2021/12/06 00:15:50;;;;;;;6.55;5.40;;;;;;;19.61;32.12;99481.38;5033999;28;20528;-70
2021/12/06 00:18:17;;;;;;;8.13;5.53;;;;;;;19.61;32.28;99484.06;5032976;28;20474;-70
2021/12/06 00:20:44;;;;;;;7.88;4.95;;;;;;;19.59;32.17;99469.97;5048985;28;21256;-69
2021/12/06 00:23:10;;;;;;;6.07;5.15;;;;;;;19.59;32.18;99484.22;5033052;28;20106;-66
2021/12/06 00:25:35;;;;;;;8.20;6.10;;;;;;;19.59;32.10;99478.03;5033844;28;20412;-70
2021/12/06 00:28:02;;;;;;;6.25;4.75;;;;;;;19.57;32.14;99472.81;5031859;28;20025;-70
2021/12/06 00:30:28;;;;;;;6.25;4.93;;;;;;;19.59;32.12;99468.13;5033556;28;20124;-69
2021/12/06 00:32:53;;;;;;;7.13;4.75;;;;;;;19.59;32.22;99467.28;5033221;28;20563;-69
2021/12/06 00:35:22;;;;;;;6.68;4.63;;;;;;;19.58;32.16;99471.81;5034018;28;20029;-69
2021/12/06 00:37:56;;;;;;;9.40;5.65;;;;;;;19.58;32.03;99465.63;5032681;28;20125;-70
2021/12/06 00:40:24;;;;;;;7.28;5.13;;;;;;;19.58;32.17;99468.31;5031227;28;20065;-68
2021/12/06 00:42:49;;;;;;;6.45;4.60;;;;;;;19.59;32.06;99475.34;5025734;28;20033;-70
2021/12/06 00:45:16;;;;;;;6.78;4.80;;;;;;;19.57;32.10;99475.50;5034080;28;20040;-71
2021/12/06 00:47:41;;;;;;;6.85;4.95;;;;;;;19.58;32.08;99471.00;5032075;28;20060;-71
2021/12/06 00:50:08;;;;;;;6.85;5.22;;;;;;;19.58;32.03;99476.34;5033671;28;20095;-71
2021/12/06 00:52:33;;;;;;;8.25;5.60;;;;;;;19.58;31.90;99476.34;5032865;28;20040;-69
2021/12/06 00:54:59;;;;;;;7.13;5.00;;;;;;;19.60;31.85;99479.69;5033365;28;20041;-71
2021/12/06 00:57:25;;;;;;;7.95;5.40;;;;;;;19.60;31.79;99474.34;5026868;28;20038;-70
2021/12/06 00:59:52;;;;;;;7.22;4.93;;;;;;;19.59;31.91;99470.81;5032630;28;20041;-70
2021/12/06 01:02:19;;;;;;;6.95;4.82;;;;;;;19.61;31.73;99473.31;5032338;28;20063;-69
2021/12/06 01:04:46;;;;;;;8.60;5.40;;;;;;;19.60;31.77;99468.97;5031951;28;20048;-71
2021/12/06 01:07:12;;;;;;;7.38;5.13;;;;;;;19.59;31.76;99468.13;5032802;28;20057;-69
2021/12/06 01:09:39;;;;;;;8.27;4.80;;;;;;;19.59;31.70;99465.44;5032230;28;20175;-70
2021/12/06 01:12:06;;;;;;;6.75;5.40;;;;;;;19.58;31.75;99465.63;5032688;28;20116;-69
2021/12/06 01:14:31;;;;;;;8.43;5.78;;;;;;;19.56;31.65;99462.28;5032397;28;20047;-67
2021/12/06 01:16:57;;;;;;;8.13;4.97;;;;;;;19.58;31.66;99471.81;5032652;28;20046;-64
2021/12/06 01:19:28;;;;;;;8.10;5.80;;;;;;;19.58;31.41;99461.06;5031113;28;20064;-72
2021/12/06 01:24:46;;;;;;;7.85;5.78;;;;;;;19.51;30.82;99465.53;5032749;28;20531;-67
2021/12/06 01:30:15;;;;;;;7.88;6.07;;;;;;;19.47;30.24;99462.38;5031840;28;20515;-67
2021/12/06 01:33:27;;;;;;;;;;;;;;;19.40;30.72;99472.13;5032514;28;20033;-68
2021/12/06 01:40:54;;;;;;;7.30;6.05;;;;;;;19.44;30.31;99480.66;5032795;28;20478;-66
2021/12/06 01:43:20;;;;;;;6.70;5.32;;;;;;;19.45;30.26;99477.81;5031944;28;20064;-68
2021/12/06 01:45:45;;;;;;;7.45;5.40;;;;;;;19.43;30.23;99482.53;5032614;28;20037;-66
2021/12/06 01:48:11;;;;;;;8.02;6.10;;;;;;;19.44;30.02;99475.28;5031600;28;20080;-67
2021/12/06 01:50:38;;;;;;;9.35;5.82;;;;;;;19.43;30.03;99481.66;5031542;28;20043;-67
2021/12/06 01:53:05;;;;;;;8.23;5.38;;;;;;;19.42;30.07;99488.03;5030930;28;20120;-68
2021/12/06 01:55:36;;;;;;;8.85;5.35;;;;;;;19.41;29.90;99492.59;5031346;28;20029;-67
2021/12/06 01:58:04;;;;;;;7.85;5.68;;;;;;;19.42;29.82;99482.69;5030944;28;20067;-68
2021/12/06 02:00:48;;;;;;;8.35;5.68;;;;;;;19.39;29.81;99497.31;5031039;28;20128;-66
2021/12/06 02:03:16;;;;;;;7.50;5.85;;;;;;;19.40;29.73;99490.91;5030993;28;20041;-66
2021/12/06 02:05:47;;;;;;;6.65;5.75;;;;;;;19.39;29.89;99493.78;5031080;28;20033;-67
2021/12/06 02:08:13;;;;;;;6.80;5.57;;;;;;;19.38;29.76;99492.94;5031249;28;20175;-67
2021/12/06 02:10:40;;;;;;;7.30;5.65;;;;;;;19.38;29.82;99498.31;5031389;28;20523;-66
2021/12/06 02:13:07;;;;;;;6.70;5.47;;;;;;;19.36;29.86;99493.13;5030638;28;20084;-68
2021/12/06 02:15:55;;;;;;;8.45;5.43;;;;;;;19.37;29.78;99496.63;5031180;28;20520;-67
2021/12/06 02:21:19;;;;;;;7.22;5.50;;;;;;;19.38;29.84;99502.84;5031519;28;20092;-67
2021/12/06 02:23:47;;;;;;;6.60;5.07;;;;;;;19.38;29.74;99502.84;5030917;28;20045;-69
2021/12/06 02:26:13;;;;;;;7.03;5.80;;;;;;;19.39;29.67;99509.91;5034428;28;20469;-66
2021/12/06 02:28:39;;;;;;;7.43;5.45;;;;;;;19.38;29.88;99509.03;5034695;28;20033;-66
2021/12/06 02:31:05;;;;;;;7.32;5.93;;;;;;;19.37;29.68;99507.38;5035334;28;20042;-68
2021/12/06 02:33:30;;;;;;;9.90;5.70;;;;;;;19.38;29.75;99503.69;5035254;28;20106;-66
2021/12/06 02:35:56;;;;;;;7.85;5.85;;;;;;;19.35;29.91;99502.19;5035070;28;20094;-68
2021/12/06 02:38:22;;;;;;;6.95;4.63;;;;;;;19.36;30.08;99506.56;5034834;28;20473;-67
2021/12/06 02:40:48;;;;;;;10.57;7.13;;;;;;;19.35;30.09;99504.03;5035094;28;20041;-68
2021/12/06 02:43:14;;;;;;;12.88;8.45;;;;;;;19.34;30.06;99510.41;5034342;28;20503;-66
2021/12/06 02:45:41;;;;;;;13.35;8.20;;;;;;;19.33;30.26;99509.59;5035062;28;20106;-67
2021/12/06 02:48:10;;;;;;;16.13;9.10;;;;;;;19.32;30.08;99512.47;5034684;28;20475;-68
2021/12/06 02:50:41;;;;;;;17.80;10.40;;;;;;;19.33;29.97;99514.13;5017025;28;20407;-67
2021/12/06 02:53:07;;;;;;;;;;;;;;;19.27;30.34;99517.50;5035666;28;20043;-69
2021/12/06 02:55:36;;;;;;;12.00;8.38;;;;;;;19.26;30.47;99523.88;5034732;28;19913;-67
2021/12/06 02:58:33;;;;;;;19.38;11.07;;;;;;;19.24;30.02;99516.03;5033852;28;20041;-67
2021/12/06 03:01:02;;;;;;;15.55;9.82;;;;;;;19.23;30.02;99526.91;5034795;28;20041;-68
2021/12/06 03:03:27;;;;;;;17.20;9.82;;;;;;;19.20;30.35;99531.63;5034756;28;20429;-69
2021/12/06 03:05:54;;;;;;;15.93;9.05;;;;;;;19.21;30.33;99524.44;5035190;28;20084;-70
2021/12/06 03:08:40;;;;;;;15.10;10.38;;;;;;;19.19;30.23;99538.00;5035357;28;20029;-69
2021/12/06 03:11:12;;;;;;;17.95;10.60;;;;;;;19.19;30.23;99542.53;5035139;28;20511;-69
2021/12/06 03:13:39;;;;;;;18.65;11.40;;;;;;;19.19;29.80;99545.22;5034568;28;20065;-68
2021/12/06 03:16:05;;;;;;;16.52;9.65;;;;;;;19.18;30.11;99547.09;5034589;28;20116;-67
2021/12/06 03:18:30;;;;;;;14.88;10.57;;;;;;;19.18;29.96;99541.72;5034831;28;20179;-68
2021/12/06 03:20:56;;;;;;;18.20;12.73;;;;;;;19.18;29.79;99543.56;5034954;28;20111;-68
2021/12/06 03:23:21;;;;;;;18.42;10.20;;;;;;;19.20;29.87;99545.03;5034390;28;20124;-68
2021/12/06 03:25:47;;;;;;;17.50;11.85;;;;;;;19.18;29.90;99547.09;5034838;28;20550;-69
2021/12/06 03:28:13;;;;;;;17.95;12.60;;;;;;;19.18;30.03;99547.09;5034406;28;20037;-69
2021/12/06 03:30:39;;;;;;;20.58;12.02;;;;;;;19.16;29.98;99546.41;5034352;28;20044;-68
2021/12/06 03:33:04;;;;;;;18.35;10.88;;;;;;;19.15;29.97;99541.22;5035171;28;20037;-69
2021/12/06 03:35:30;;;;;;;20.05;11.18;;;;;;;19.13;30.17;99543.22;5034814;28;20025;-67
2021/12/06 03:37:56;;;;;;;18.08;11.35;;;;;;;19.09;30.06;99548.13;5032903;28;20053;-68
2021/12/06 03:40:22;;;;;;;22.50;12.57;;;;;;;19.08;30.04;99545.63;5034617;28;20095;-68
2021/12/06 03:42:48;;;;;;;16.10;9.43;;;;;;;19.08;30.22;99541.09;5034442;28;20033;-68
2021/12/06 03:45:14;;;;;;;20.98;12.88;;;;;;;19.11;29.94;99545.28;5034813;28;20041;-68
2021/12/06 03:47:40;;;;;;;22.15;12.07;;;;;;;19.10;29.88;99547.13;5034116;28;20120;-67
2021/12/06 03:50:08;;;;;;;19.90;12.60;;;;;;;19.12;30.05;99558.50;5034637;28;20033;-67
2021/12/06 03:52:35;;;;;;;20.63;10.82;;;;;;;19.10;30.00;99549.78;5034257;28;20052;-69
2021/12/06 03:55:02;;;;;;;19.95;11.85;;;;;;;19.09;30.13;99561.53;5034282;28;20041;-68
2021/12/06 03:57:28;;;;;;;21.30;13.35;;;;;;;19.06;29.81;99554.69;5033912;28;20033;-68
2021/12/06 03:59:54;;;;;;;16.98;12.23;;;;;;;19.04;29.81;99559.38;5032608;28;20044;-66
2021/12/06 04:02:23;;;;;;;17.90;11.93;;;;;;;19.05;29.95;99562.88;5034171;28;20033;-68
2021/12/06 04:04:48;;;;;;;20.85;11.98;;;;;;;19.05;30.09;99565.56;5033851;28;20447;-66
2021/12/06 04:07:14;;;;;;;19.73;12.25;;;;;;;19.02;29.98;99568.63;5034285;28;20053;-69
2021/12/06 04:09:40;;;;;;;17.50;10.85;;;;;;;18.99;30.05;99575.16;5033091;28;20091;-68
2021/12/06 04:12:08;;;;;;;21.33;12.57;;;;;;;18.99;29.96;99577.84;5033248;28;21376;-67
2021/12/06 04:14:34;;;;;;;21.33;12.43;;;;;;;18.99;30.32;99574.34;5034431;28;20492;-72
2021/12/06 04:17:00;;;;;;;22.02;14.10;;;;;;;18.99;29.96;99574.34;5033505;28;20041;-69
2021/12/06 04:19:26;;;;;;;22.13;13.30;;;;;;;18.98;29.88;99583.38;5034299;28;20049;-68
2021/12/06 04:21:52;;;;;;;18.88;12.30;;;;;;;18.98;29.93;99586.06;5034084;28;20033;-70
2021/12/06 04:24:18;;;;;;;18.10;11.88;;;;;;;18.96;30.23;99582.72;5033947;28;20032;-69
2021/12/06 04:26:45;;;;;;;18.73;11.82;;;;;;;18.95;30.17;99586.41;5033778;28;20037;-69
2021/12/06 04:29:12;;;;;;;19.17;12.85;;;;;;;18.95;30.04;99592.63;5033532;28;20076;-68
2021/12/06 04:31:49;;;;;;;25.15;12.50;;;;;;;18.95;30.38;99595.31;5034058;28;20044;-67
2021/12/06 04:34:15;;;;;;;20.98;12.50;;;;;;;18.95;30.26;99599.81;5033530;28;20029;-67
2021/12/06 04:36:43;;;;;;;19.83;11.63;;;;;;;18.95;30.45;99597.97;5033185;28;20115;-67
2021/12/06 04:39:10;;;;;;;18.73;11.70;;;;;;;18.96;30.49;99594.28;5032857;28;20037;-67
2021/12/06 04:41:37;;;;;;;18.85;11.45;;;;;;;18.95;30.37;99589.09;5033770;28;20040;-67
2021/12/06 04:44:04;;;;;;;18.60;11.85;;;;;;;18.95;30.55;99597.97;5033351;28;20056;-68
2021/12/06 04:46:29;;;;;;;21.88;11.70;;;;;;;18.94;30.59;99603.47;5032817;28;20044;-67
2021/12/06 04:48:55;;;;;;;19.63;12.13;;;;;;;18.94;30.38;99604.34;5032507;28;20038;-66
2021/12/06 04:51:21;;;;;;;19.83;12.00;;;;;;;18.92;30.51;99601.78;5033218;28;20033;-66
2021/12/06 04:53:47;;;;;;;19.40;13.02;;;;;;;18.92;30.32;99601.78;5032564;28;20048;-66
2021/12/06 04:56:31;;;;;;;14.52;10.43;;;;;;;18.91;30.46;99597.44;5032659;28;20041;-66
2021/12/06 04:59:05;;;;;;;17.60;11.95;;;;;;;18.90;30.39;99609.16;5030202;28;20181;-67
2021/12/06 05:01:34;;;;;;;21.65;12.00;;;;;;;18.90;30.38;99609.16;5033277;28;20033;-68
2021/12/06 05:04:07;;;;;;;17.27;11.32;;;;;;;18.88;30.30;99605.84;5032182;28;20127;-68
2021/12/06 05:06:36;;;;;;;18.80;11.52;;;;;;;18.88;30.16;99610.38;5033090;28;20041;-68
2021/12/06 05:09:08;;;;;;;15.75;11.73;;;;;;;18.87;30.02;99608.69;5032251;28;20034;-68
2021/12/06 05:11:34;;;;;;;15.63;10.48;;;;;;;18.87;30.29;99612.22;5033068;28;20029;-68
2021/12/06 05:14:02;;;;;;;15.30;10.93;;;;;;;18.88;30.26;99618.41;5032135;28;20064;-69
2021/12/06 05:16:28;;;;;;;17.48;11.13;;;;;;;18.87;29.98;99612.22;5032723;28;20140;-69
2021/12/06 05:18:54;;;;;;;13.73;9.70;;;;;;;18.87;30.11;99614.06;5032506;28;20034;-69
2021/12/06 05:21:20;;;;;;;19.25;11.00;;;;;;;18.84;30.34;99609.88;5033275;28;20515;-69
2021/12/06 05:23:46;;;;;;;14.02;9.80;;;;;;;18.85;30.07;99621.44;5032487;28;20037;-69
2021/12/06 05:26:11;;;;;;;16.88;10.07;;;;;;;18.84;30.09;99622.44;5032542;28;20025;-69
2021/12/06 05:28:42;;;;;;;13.52;9.90;;;;;;;18.84;30.13;99619.75;5032212;28;20029;-69
2021/12/06 05:31:14;;;;;;;15.13;10.32;;;;;;;18.83;30.02;99608.22;5000807;28;20056;-69
2021/12/06 05:33:43;;;;;;;15.02;9.77;;;;;;;18.83;29.93;99608.22;5011833;28;20115;-70
2021/12/06 05:36:09;;;;;;;16.75;10.02;;;;;;;18.87;29.65;99614.91;5012790;28;20038;-70
2021/12/06 05:38:35;;;;;;;12.95;9.55;;;;;;;18.88;29.83;99613.91;5024164;28;20034;-69
2021/12/06 05:41:01;;;;;;;15.05;10.57;;;;;;;18.88;29.75;99619.25;5032340;28;20029;-70
2021/12/06 05:43:27;;;;;;;17.17;9.85;;;;;;;18.87;29.87;99617.59;5032533;28;20167;-69
2021/12/06 05:45:54;;;;;;;12.73;9.02;;;;;;;18.86;29.81;99621.28;5032233;28;20463;-69
2021/12/06 05:48:19;;;;;;;13.93;8.60;;;;;;;18.87;29.96;99628.31;5031369;28;20029;-68
2021/12/06 05:50:47;;;;;;;14.63;9.65;;;;;;;18.86;30.02;99625.78;5032095;28;20048;-68
2021/12/06 05:53:14;;;;;;;14.27;10.07;;;;;;;18.88;29.48;99624.63;5031892;28;20106;-68
2021/12/06 05:55:40;;;;;;;15.00;9.25;;;;;;;18.89;29.67;99628.13;5031941;28;20033;-68
2021/12/06 05:58:07;;;;;;;14.90;9.50;;;;;;;18.89;29.73;99620.94;5031557;28;20044;-69
2021/12/06 06:00:33;;;;;;;13.10;9.27;;;;;;;18.89;29.36;99618.25;5031584;28;20048;-67
2021/12/06 06:03:02;;;;;;;13.98;9.38;;;;;;;18.90;29.44;99619.91;5031585;28;20454;-67
2021/12/06 06:05:29;;;;;;;14.15;9.27;;;;;;;18.90;29.53;99627.13;5029558;28;20036;-67
2021/12/06 06:07:54;;;;;;;13.50;9.20;;;;;;;18.90;29.61;99635.16;5029685;28;20035;-68
2021/12/06 06:10:20;;;;;;;13.45;9.10;;;;;;;18.91;29.79;99637.66;5029983;28;20037;-68
2021/12/06 06:12:45;;;;;;;13.90;9.30;;;;;;;18.90;29.57;99638.66;5030469;28;20053;-68
2021/12/06 06:15:12;;;;;;;11.90;8.98;;;;;;;18.90;29.40;99635.97;5010620;28;20041;-67
2021/12/06 06:17:43;;;;;;;12.65;9.18;;;;;;;18.92;29.58;99638.50;5031754;28;20041;-68
2021/12/06 06:20:19;;;;;;;12.90;9.65;;;;;;;18.94;29.39;99639.22;5030075;28;20091;-68
2021/12/06 06:22:45;;;;;;;14.40;9.10;;;;;;;18.94;29.39;99639.22;5027163;28;20044;-67
2021/12/06 06:25:11;;;;;;;13.32;9.07;;;;;;;18.95;29.54;99632.84;5014119;28;20044;-68
2021/12/06 06:27:37;;;;;;;15.10;9.45;;;;;;;18.98;29.45;99640.50;5030872;28;20033;-67
2021/12/06 06:30:04;;;;;;;15.52;10.00;;;;;;;18.98;29.37;99639.69;5031552;28;20099;-67
2021/12/06 06:32:29;;;;;;;13.73;8.35;;;;;;;18.99;29.30;99647.53;5031739;28;20095;-68
2021/12/06 06:34:55;;;;;;;12.48;8.48;;;;;;;19.00;29.69;99648.41;5030164;28;20053;-68
2021/12/06 06:37:21;;;;;;;13.52;9.20;;;;;;;19.01;29.53;99647.41;5029220;28;20400;-68
2021/12/06 06:39:47;;;;;;;11.93;7.88;;;;;;;19.04;29.43;99653.25;5029721;28;20041;-69
2021/12/06 06:42:12;;;;;;;15.85;7.53;;;;;;;19.07;29.63;99660.09;5028951;28;20029;-69
2021/12/06 06:44:38;;;;;;;9.40;6.93;;;;;;;19.10;29.39;99669.66;5031177;28;20040;-68
2021/12/06 06:47:03;;;;;;;9.38;6.68;;;;;;;19.11;29.35;99669.47;5030865;28;20087;-69
2021/12/06 06:49:31;;;;;;;9.02;5.93;;;;;;;19.11;29.27;99664.09;5031581;28;20060;-69
2021/12/06 06:51:58;;;;;;;8.10;5.82;;;;;;;19.13;29.02;99667.47;5031241;28;20095;-68
2021/12/06 06:54:24;;;;;;;6.43;5.70;;;;;;;19.14;29.46;99676.31;5031953;28;20064;-69
2021/12/06 06:56:50;;;;;;;9.68;6.40;;;;;;;19.14;29.31;99679.00;5031864;28;20044;-69
2021/12/06 06:59:15;;;;;;;10.77;6.68;;;;;;;19.12;29.40;99676.50;5029273;28;20443;-69
2021/12/06 07:01:41;;;;;;;10.73;6.95;;;;;;;19.14;29.24;99685.22;5031051;28;20029;-69
2021/12/06 07:04:08;;;;;;;9.07;6.93;;;;;;;19.17;29.24;99684.88;5031111;28;20033;-68
2021/12/06 07:06:33;;;;;;;11.82;6.13;;;;;;;19.17;29.21;99690.25;5031731;28;20052;-69
2021/12/06 07:08:59;;;;;;;10.95;6.00;;;;;;;19.21;30.10;99688.88;5029856;28;20033;-68
2021/12/06 07:11:27;;;;;;;25.65;12.13;;;;;;;19.28;30.80;99691.69;5033110;28;20033;-68
2021/12/06 07:13:52;;;;;;;44.28;19.55;;;;;;;19.34;31.05;99690.16;5035040;28;20542;-69
2021/12/06 07:16:18;;;;;;;66.10;27.88;;;;;;;19.39;31.52;99693.16;5035404;28;20168;-67
2021/12/06 07:18:45;;;;;;;70.97;31.48;;;;;;;19.42;31.64;99687.44;5034493;28;20091;-68
2021/12/06 07:21:12;;;;;;;83.22;37.58;;;;;;;19.49;31.75;99699.13;5034873;28;20115;-68
2021/12/06 07:23:38;;;;;;;85.32;37.90;;;;;;;19.49;31.88;99695.63;5033782;28;20064;-69
2021/12/06 07:26:12;;;;;;;94.63;42.42;;;;;;;19.50;32.15;99700.81;5033921;28;20037;-71
2021/12/06 07:28:39;;;;;;;107.55;42.15;;;;;;;19.52;32.06;99700.66;5014934;28;20045;-65
2021/12/06 07:31:06;;;;;;;74.47;34.90;;;;;;;19.54;31.73;99698.63;5015425;28;20030;-66
2021/12/06 07:33:35;;;;;;;76.45;36.90;;;;;;;19.57;31.78;99705.50;5015210;28;20092;-69
2021/12/06 07:36:02;;;;;;;94.93;41.92;;;;;;;19.58;31.92;99715.22;5027352;28;20159;-66
2021/12/06 07:38:28;;;;;;;86.18;39.22;;;;;;;19.60;31.84;99715.88;5034030;28;20500;-69
2021/12/06 07:40:55;;;;;;;71.70;35.25;;;;;;;19.60;31.67;99721.25;5034690;28;20060;-76
2021/12/06 07:43:20;;;;;;;78.07;34.80;;;;;;;19.62;31.54;99724.59;5034581;28;20037;-68
2021/12/06 07:45:46;;;;;;;76.60;35.28;;;;;;;19.63;31.86;99723.59;5034694;28;20025;-70
2021/12/06 07:48:12;;;;;;;61.90;31.70;;;;;;;19.64;31.74;99717.19;5012015;28;20384;-68
2021/12/06 07:56:27;;;;;;;62.67;29.02;;;;;;;19.58;31.75;99705.31;5053078;28;20534;-71
2021/12/06 07:58:53;;;;;;;51.47;26.40;;;;;;;19.57;31.55;99711.69;5054255;28;20041;-72
2021/12/06 08:01:19;;;;;;;46.60;26.70;;;;;;;19.57;32.00;99714.38;5054525;28;20115;-71
2021/12/06 08:03:45;;;;;;;42.30;24.05;;;;;;;19.58;31.83;99709.84;5043562;28;20056;-73
2021/12/06 08:06:11;;;;;;;50.05;25.50;;;;;;;19.59;32.05;99714.22;5054373;28;20472;-71
2021/12/06 08:08:38;;;;;;;42.95;23.73;;;;;;;19.59;32.10;99715.03;5053706;28;20461;-71
2021/12/06 08:11:11;;;;;;;47.70;22.90;;;;;;;19.59;32.18;99715.03;5053825;28;20037;-72
2021/12/06 08:13:39;;;;;;;43.35;22.00;;;;;;;19.60;32.23;99732.00;5053984;28;20036;-71
2021/12/06 08:16:12;;;;;;;41.22;20.70;;;;;;;19.58;32.14;99728.66;5053888;28;20451;-71
2021/12/06 08:18:37;;;;;;;46.28;21.00;;;;;;;19.58;32.14;99732.16;5053217;28;20029;-72
2021/12/06 08:21:04;;;;;;;35.83;21.02;;;;;;;19.58;32.00;99742.06;5053576;28;20119;-71
2021/12/06 08:23:31;;;;;;;35.97;19.75;;;;;;;19.57;31.97;99745.75;5052172;28;20128;-71
2021/12/06 08:25:57;;;;;;;30.13;16.10;;;;;;;19.59;32.16;99744.56;5053957;28;20404;-71
2021/12/06 08:28:23;;;;;;;30.95;17.00;;;;;;;19.59;31.96;99747.25;5054089;28;20120;-71
2021/12/06 08:30:51;;;;;;;34.78;17.35;;;;;;;19.60;31.99;99745.41;5049462;28;20133;-73
2021/12/06 08:33:17;;;;;;;26.30;16.67;;;;;;;19.59;31.80;99736.50;5037982;28;20040;-73
2021/12/06 08:35:47;;;;;;;27.80;15.35;;;;;;;19.60;31.84;99748.09;5053450;28;20028;-71
2021/12/06 08:38:14;;;;;;;24.48;13.93;;;;;;;19.58;31.86;99739.38;5052342;28;20455;-70
2021/12/06 08:40:43;;;;;;;27.50;16.02;;;;;;;19.60;31.84;99745.41;5053893;28;20052;-71
2021/12/06 08:43:16;;;;;;;25.80;13.63;;;;;;;19.59;31.93;99744.56;5053007;28;20067;-70
2021/12/06 08:45:47;;;;;;;28.02;14.68;;;;;;;19.61;31.79;99747.09;5053450;28;20115;-70
2021/12/06 08:48:12;;;;;;;23.75;13.13;;;;;;;19.59;31.91;99747.25;5053358;28;20410;-71
2021/12/06 08:50:38;;;;;;;21.98;12.65;;;;;;;19.62;31.88;99762.19;5053711;28;20037;-72
2021/12/06 08:53:04;;;;;;;24.17;12.75;;;;;;;19.62;31.72;99754.13;5052394;28;20036;-72
2021/12/06 08:55:29;;;;;;;29.90;12.63;;;;;;;19.63;31.72;99753.94;5053461;28;20053;-74
2021/12/06 08:57:55;;;;;;;19.05;11.73;;;;;;;19.64;31.85;99757.44;5051168;28;20095;-71
2021/12/06 09:00:29;;;;;;;21.73;11.77;;;;;;;19.65;31.74;99740.34;5053003;28;20032;-76
2021/12/06 09:02:55;;;;;;;15.32;11.57;;;;;;;19.62;31.79;99740.72;5052105;28;20055;-69
2021/12/06 09:05:24;;;;;;;16.90;10.85;;;;;;;19.65;31.82;99743.03;5053189;28;20435;-70
2021/12/06 09:07:51;;;;;;;14.55;9.98;;;;;;;19.67;31.71;99741.00;5053056;28;20033;-73
2021/12/06 09:10:17;;;;;;;16.92;9.65;;;;;;;19.69;31.80;99744.34;5052962;28;20060;-73
2021/12/06 09:12:44;;;;;;;19.63;11.25;;;;;;;19.71;31.68;99734.28;5052948;28;20403;-71
2021/12/06 09:15:13;;;;;;;12.45;9.18;;;;;;;19.71;31.76;99723.53;5052388;28;20033;-68
2021/12/06 09:17:40;;;;;;;14.35;10.00;;;;;;;19.72;31.60;99724.38;5033370;28;20507;-71
2021/12/06 09:20:08;;;;;;;16.48;9.88;;;;;;;19.73;31.79;99729.56;5032927;28;20052;-69
2021/12/06 09:22:35;;;;;;;14.45;9.13;;;;;;;19.73;31.64;99743.00;5045224;28;20032;-74
2021/12/06 09:25:00;;;;;;;14.98;9.82;;;;;;;19.72;31.82;99740.47;5052249;28;20152;-74
2021/12/06 09:27:26;;;;;;;12.77;8.25;;;;;;;19.75;31.59;99740.97;5052834;28;20044;-74
2021/12/06 09:29:55;;;;;;;14.55;8.23;;;;;;;19.77;31.59;99738.97;5052704;28;20032;-70
2021/12/06 09:32:21;;;;;;;14.65;7.72;;;;;;;19.76;31.67;99744.47;5052381;28;20025;-70
2021/12/06 09:34:47;;;;;;;12.18;8.55;;;;;;;19.77;31.64;99738.09;5042902;28;20051;-67
2021/12/06 09:37:15;;;;;;;14.30;7.88;;;;;;;19.77;31.66;99730.91;5051904;28;20032;-71
2021/12/06 09:39:41;;;;;;;12.93;7.32;;;;;;;19.77;31.51;99744.31;5052372;28;20049;-71
2021/12/06 09:42:07;;;;;;;11.77;7.47;;;;;;;19.78;31.46;99748.66;5052663;28;20063;-75
2021/12/06 09:44:33;;;;;;;13.45;8.30;;;;;;;19.79;31.42;99760.25;5052366;28;20037;-72
2021/12/06 09:46:58;;;;;;;11.95;7.50;;;;;;;19.77;31.57;99763.13;5051886;28;20033;-73
2021/12/06 09:49:25;;;;;;;9.35;7.03;;;;;;;19.79;31.51;99766.44;5048021;28;20043;-70
2021/12/06 09:51:57;;;;;;;11.57;7.55;;;;;;;19.79;31.51;99755.69;5048606;28;20036;-71
2021/12/06 09:54:31;;;;;;;12.15;7.95;;;;;;;19.79;31.33;99761.06;5051880;28;20041;-71
2021/12/06 09:56:58;;;;;;;9.88;7.30;;;;;;;19.80;31.40;99769.97;5052325;28;20114;-69
2021/12/06 09:59:27;;;;;;;12.05;7.47;;;;;;;19.81;31.48;99766.28;5051877;28;20032;-72
2021/12/06 10:01:57;;;;;;;10.65;7.07;;;;;;;19.81;31.48;99755.53;5052152;28;20037;-71
2021/12/06 10:04:26;;;;;;;8.85;6.78;;;;;;;19.82;31.46;99752.66;5048890;28;20039;-68
2021/12/06 10:06:52;;;;;;;10.60;6.57;;;;;;;19.81;31.37;99755.53;5051982;28;20041;-69
2021/12/06 10:09:19;;;;;;;9.35;7.15;;;;;;;19.82;30.82;99757.22;5051255;28;20067;-72
2021/12/06 10:11:46;;;;;;;8.98;6.47;;;;;;;19.85;30.29;99769.44;5052101;28;20044;-73
2021/12/06 10:14:12;;;;;;;10.07;6.57;;;;;;;19.87;30.68;99775.50;5051729;28;20120;-71
2021/12/06 10:16:39;;;;;;;8.98;6.75;;;;;;;19.89;30.56;99768.13;5052156;28;20082;-71
2021/12/06 10:19:05;;;;;;;7.80;6.13;;;;;;;19.87;30.94;99760.22;5051175;28;20047;-73
2021/12/06 10:21:33;;;;;;;7.85;5.90;;;;;;;19.88;30.82;99761.06;5052320;28;20036;-73
2021/12/06 10:23:59;;;;;;;9.38;6.35;;;;;;;19.87;30.79;99759.41;5051443;28;20036;-75
2021/12/06 10:26:29;;;;;;;8.85;6.30;;;;;;;19.89;30.74;99768.13;5052148;28;20044;-74
2021/12/06 10:29:01;;;;;;;9.90;6.40;;;;;;;19.88;30.71;99761.06;5051382;28;20029;-72
2021/12/06 10:31:31;;;;;;;8.40;6.00;;;;;;;19.89;30.80;99768.94;5051904;28;20045;-74
2021/12/06 10:33:57;;;;;;;8.10;5.78;;;;;;;19.88;30.60;99767.25;5051065;28;20040;-74
2021/12/06 10:36:26;;;;;;;7.55;6.25;;;;;;;19.87;30.51;99760.22;5050382;28;20044;-74
2021/12/06 10:38:59;;;;;;;8.55;5.63;;;;;;;19.87;30.42;99759.41;5051514;28;20517;-73
2021/12/06 10:41:26;;;;;;;10.80;5.93;;;;;;;19.88;30.61;99777.19;5050970;28;20098;-74
2021/12/06 10:44:04;;;;;;;9.10;5.88;;;;;;;19.88;30.54;99766.44;5050515;28;20045;-72
2021/12/06 10:46:32;;;;;;;8.27;5.60;;;;;;;19.87;30.44;99754.03;5053769;28;20546;-75
2021/12/06 10:49:02;;;;;;;9.40;5.20;;;;;;;19.86;30.48;99752.31;5052369;28;20049;-74
2021/12/06 10:51:29;;;;;;;9.88;5.47;;;;;;;19.88;30.51;99756.53;5044920;28;20048;-68
2021/12/06 10:54:02;;;;;;;9.30;5.60;;;;;;;19.91;30.82;99760.72;5051403;28;20093;-77
2021/12/06 10:56:42;;;;;;;8.52;5.78;;;;;;;19.91;30.72;99772.28;5055359;28;20476;-67
2021/12/06 10:59:21;;;;;;;14.45;5.13;;;;;;;19.92;30.76;99778.50;5053704;28;20035;-69
2021/12/06 11:01:50;;;;;;;12.93;7.15;;;;;;;19.46;30.54;99779.16;5052504;28;20089;-69
2021/12/06 11:04:18;;;;;;;11.07;7.32;;;;;;;18.70;31.22;99777.59;5052025;28;20488;-75
2021/12/06 11:06:50;;;;;;;10.68;7.50;;;;;;;18.04;31.77;99796.28;5040634;28;20051;-74
2021/12/06 11:09:28;;;;;;;9.80;7.43;;;;;;;17.50;32.47;99788.50;5035135;28;20029;-74
2021/12/06 11:11:59;;;;;;;8.45;6.80;;;;;;;17.11;33.14;99789.81;5054327;28;20040;-74
2021/12/06 11:14:31;;;;;;;9.05;7.47;;;;;;;16.84;33.63;99793.41;5056066;28;20363;-74
2021/12/06 11:17:00;;;;;;;13.05;7.35;;;;;;;16.59;33.70;99795.88;5055453;28;20033;-73
2021/12/06 11:19:28;;;;;;;9.15;7.15;;;;;;;16.46;34.18;99796.28;5055086;28;20039;-73
2021/12/06 11:21:55;;;;;;;14.52;7.53;;;;;;;16.32;34.07;99790.47;5055010;28;20124;-72
2021/12/06 11:24:40;;;;;;;11.80;7.47;;;;;;;16.24;34.69;99798.41;5055141;28;20040;-72
2021/12/06 11:27:09;;;;;;;11.68;7.35;;;;;;;16.15;34.55;99802.00;5055017;28;20036;-73
2021/12/06 11:29:43;;;;;;;10.43;7.45;;;;;;;16.02;34.73;99805.00;5054965;28;20033;-73
2021/12/06 11:32:15;;;;;;;10.80;7.53;;;;;;;15.99;34.54;99791.97;5055083;28;20037;-74
2021/12/06 11:34:53;;;;;;;9.57;7.35;;;;;;;15.91;34.77;99795.38;5053751;28;20064;-75
2021/12/06 11:37:20;;;;;;;13.45;7.28;;;;;;;15.80;34.94;99790.22;5054914;28;20111;-76
2021/12/06 11:39:49;;;;;;;13.48;7.90;;;;;;;15.74;35.02;99799.66;5054983;28;20040;-76
2021/12/06 11:42:15;;;;;;;12.32;9.00;;;;;;;15.71;35.17;99797.28;5054368;28;20044;-75
2021/12/06 11:44:42;;;;;;;13.52;9.60;;;;;;;15.65;34.80;99797.91;5055044;28;20040;-77
2021/12/06 11:47:17;;;;;;;13.38;8.30;;;;;;;15.62;35.25;99791.00;5054844;28;20488;-76